sensor_id;sensor_type;location;lat;lon;timestamp;P1;durP1;ratioP1;P2;durP2;ratioP2
11943;SDS011;6031;50.220;10.122;2022-12-18T00:01:13;27.93;;;15.00;;
11943;SDS011;6031;50.220;10.122;2022-12-18T00:03:43;24.57;;;14.63;;
11943;SDS011;6031;50.220;10.122;2022-12-18T00:06:10;21.40;;;12.33;;
11943;SDS011;6031;50.220;10.122;2022-12-18T00:08:36;20.83;;;13.40;;
11943;SDS011;6031;50.220;10.122;2022-12-18T00:11:05;30.37;;;14.93;;
11943;SDS011;6031;50.220;10.122;2022-12-18T00:13:32;24.27;;;13.10;;
11943;SDS011;6031;50.220;10.122;2022-12-18T00:16:05;23.23;;;12.93;;
11943;SDS011;6031;50.220;10.122;2022-12-18T00:18:33;27.87;;;13.33;;
11943;SDS011;6031;50.220;10.122;2022-12-18T00:21:00;22.37;;;13.37;;
11943;SDS011;6031;50.220;10.122;2022-12-18T00:23:27;17.07;;;11.70;;
11943;SDS011;6031;50.220;10.122;2022-12-18T00:25:54;25.00;;;13.30;;
11943;SDS011;6031;50.220;10.122;2022-12-18T00:28:19;19.00;;;11.63;;
11943;SDS011;6031;50.220;10.122;2022-12-18T00:30:45;18.30;;;11.13;;
11943;SDS011;6031;50.220;10.122;2022-12-18T00:33:10;18.53;;;10.60;;
11943;SDS011;6031;50.220;10.122;2022-12-18T00:35:36;23.13;;;11.57;;
11943;SDS011;6031;50.220;10.122;2022-12-18T00:38:01;16.97;;;10.30;;
11943;SDS011;6031;50.220;10.122;2022-12-18T00:40:27;19.13;;;10.93;;
11943;SDS011;6031;50.220;10.122;2022-12-18T00:42:52;14.43;;;10.43;;
11943;SDS011;6031;50.220;10.122;2022-12-18T00:45:22;24.03;;;14.30;;
11943;SDS011;6031;50.220;10.122;2022-12-18T00:47:52;27.70;;;14.80;;
11943;SDS011;6031;50.220;10.122;2022-12-18T00:50:17;16.17;;;10.23;;
11943;SDS011;6031;50.220;10.122;2022-12-18T00:52:43;19.40;;;10.83;;
11943;SDS011;6031;50.220;10.122;2022-12-18T00:55:09;27.47;;;13.27;;
11943;SDS011;6031;50.220;10.122;2022-12-18T00:57:35;26.33;;;15.07;;
11943;SDS011;6031;50.220;10.122;2022-12-18T01:00:02;21.43;;;11.63;;
11943;SDS011;6031;50.220;10.122;2022-12-18T01:02:29;18.67;;;10.37;;
11943;SDS011;6031;50.220;10.122;2022-12-18T01:04:55;20.03;;;9.73;;
11943;SDS011;6031;50.220;10.122;2022-12-18T01:07:20;18.30;;;10.00;;
11943;SDS011;6031;50.220;10.122;2022-12-18T01:09:46;18.37;;;10.50;;
11943;SDS011;6031;50.220;10.122;2022-12-18T01:12:11;16.03;;;10.87;;
11943;SDS011;6031;50.220;10.122;2022-12-18T01:14:37;18.77;;;11.03;;
11943;SDS011;6031;50.220;10.122;2022-12-18T01:17:03;30.73;;;13.67;;
11943;SDS011;6031;50.220;10.122;2022-12-18T01:19:29;66.80;;;31.77;;
11943;SDS011;6031;50.220;10.122;2022-12-18T01:21:54;83.70;;;34.80;;
11943;SDS011;6031;50.220;10.122;2022-12-18T01:24:20;57.67;;;24.23;;
11943;SDS011;6031;50.220;10.122;2022-12-18T01:26:45;45.23;;;19.27;;
11943;SDS011;6031;50.220;10.122;2022-12-18T01:29:11;34.47;;;18.13;;
11943;SDS011;6031;50.220;10.122;2022-12-18T01:31:36;32.83;;;17.93;;
11943;SDS011;6031;50.220;10.122;2022-12-18T01:34:03;33.23;;;16.40;;
11943;SDS011;6031;50.220;10.122;2022-12-18T01:36:30;25.10;;;14.40;;
11943;SDS011;6031;50.220;10.122;2022-12-18T01:39:02;23.87;;;13.70;;
11943;SDS011;6031;50.220;10.122;2022-12-18T01:41:32;18.97;;;12.80;;
11943;SDS011;6031;50.220;10.122;2022-12-18T01:47:23;27.77;;;15.37;;
11943;SDS011;6031;50.220;10.122;2022-12-18T01:49:56;24.10;;;14.00;;
11943;SDS011;6031;50.220;10.122;2022-12-18T01:52:24;21.90;;;10.87;;
11943;SDS011;6031;50.220;10.122;2022-12-18T01:54:54;26.37;;;13.53;;
11943;SDS011;6031;50.220;10.122;2022-12-18T01:57:20;24.50;;;14.10;;
11943;SDS011;6031;50.220;10.122;2022-12-18T01:59:47;24.60;;;16.30;;
11943;SDS011;6031;50.220;10.122;2022-12-18T02:02:17;34.57;;;16.73;;
11943;SDS011;6031;50.220;10.122;2022-12-18T02:04:43;26.30;;;14.23;;
11943;SDS011;6031;50.220;10.122;2022-12-18T02:12:42;26.33;;;13.33;;
11943;SDS011;6031;50.220;10.122;2022-12-18T02:15:15;26.53;;;13.37;;
11943;SDS011;6031;50.220;10.122;2022-12-18T02:17:53;30.00;;;15.50;;
11943;SDS011;6031;50.220;10.122;2022-12-18T02:20:21;33.50;;;15.07;;
11943;SDS011;6031;50.220;10.122;2022-12-18T02:26:07;21.23;;;11.60;;
11943;SDS011;6031;50.220;10.122;2022-12-18T02:28:42;22.00;;;12.43;;
11943;SDS011;6031;50.220;10.122;2022-12-18T02:31:22;17.80;;;11.97;;
11943;SDS011;6031;50.220;10.122;2022-12-18T02:33:51;30.43;;;11.67;;
11943;SDS011;6031;50.220;10.122;2022-12-18T02:36:20;19.10;;;11.17;;
11943;SDS011;6031;50.220;10.122;2022-12-18T02:38:46;20.93;;;11.33;;
11943;SDS011;6031;50.220;10.122;2022-12-18T02:41:13;20.90;;;10.90;;
11943;SDS011;6031;50.220;10.122;2022-12-18T02:43:42;21.93;;;10.87;;
11943;SDS011;6031;50.220;10.122;2022-12-18T02:46:22;18.60;;;9.07;;
11943;SDS011;6031;50.220;10.122;2022-12-18T02:48:57;22.40;;;11.20;;
11943;SDS011;6031;50.220;10.122;2022-12-18T02:51:53;20.20;;;12.80;;
11943;SDS011;6031;50.220;10.122;2022-12-18T02:54:30;22.07;;;10.70;;
11943;SDS011;6031;50.220;10.122;2022-12-18T02:57:24;12.43;;;9.33;;
11943;SDS011;6031;50.220;10.122;2022-12-18T03:02:43;16.33;;;10.77;;
11943;SDS011;6031;50.220;10.122;2022-12-18T03:05:22;19.20;;;11.30;;
11943;SDS011;6031;50.220;10.122;2022-12-18T03:08:07;17.87;;;10.63;;
11943;SDS011;6031;50.220;10.122;2022-12-18T03:10:38;17.80;;;10.63;;
11943;SDS011;6031;50.220;10.122;2022-12-18T03:13:13;18.93;;;9.80;;
11943;SDS011;6031;50.220;10.122;2022-12-18T03:15:46;21.90;;;10.33;;
11943;SDS011;6031;50.220;10.122;2022-12-18T03:18:35;17.47;;;8.90;;
11943;SDS011;6031;50.220;10.122;2022-12-18T03:21:02;19.90;;;11.03;;
11943;SDS011;6031;50.220;10.122;2022-12-18T03:23:32;20.70;;;11.17;;
11943;SDS011;6031;50.220;10.122;2022-12-18T03:26:03;15.27;;;9.13;;
11943;SDS011;6031;50.220;10.122;2022-12-18T03:28:32;16.17;;;10.63;;
11943;SDS011;6031;50.220;10.122;2022-12-18T03:31:02;15.20;;;11.17;;
11943;SDS011;6031;50.220;10.122;2022-12-18T03:33:34;20.77;;;9.93;;
11943;SDS011;6031;50.220;10.122;2022-12-18T03:36:17;23.30;;;9.27;;
11943;SDS011;6031;50.220;10.122;2022-12-18T03:38:42;18.33;;;11.53;;
11943;SDS011;6031;50.220;10.122;2022-12-18T03:41:11;15.07;;;10.47;;
11943;SDS011;6031;50.220;10.122;2022-12-18T03:46:24;20.00;;;10.17;;
11943;SDS011;6031;50.220;10.122;2022-12-18T03:48:59;16.93;;;9.77;;
11943;SDS011;6031;50.220;10.122;2022-12-18T03:51:50;23.23;;;12.17;;
11943;SDS011;6031;50.220;10.122;2022-12-18T03:54:22;36.17;;;15.07;;
11943;SDS011;6031;50.220;10.122;2022-12-18T03:56:52;28.37;;;15.53;;
11943;SDS011;6031;50.220;10.122;2022-12-18T03:59:23;25.77;;;12.87;;
11943;SDS011;6031;50.220;10.122;2022-12-18T04:01:50;19.47;;;11.83;;
11943;SDS011;6031;50.220;10.122;2022-12-18T04:04:18;16.80;;;10.70;;
11943;SDS011;6031;50.220;10.122;2022-12-18T04:06:45;15.30;;;9.90;;
11943;SDS011;6031;50.220;10.122;2022-12-18T04:09:13;22.57;;;11.53;;
11943;SDS011;6031;50.220;10.122;2022-12-18T04:11:40;22.90;;;11.00;;
11943;SDS011;6031;50.220;10.122;2022-12-18T04:14:07;19.77;;;10.77;;
11943;SDS011;6031;50.220;10.122;2022-12-18T04:16:32;17.10;;;9.77;;
11943;SDS011;6031;50.220;10.122;2022-12-18T04:18:58;22.60;;;9.60;;
11943;SDS011;6031;50.220;10.122;2022-12-18T04:21:24;10.33;;;7.40;;
11943;SDS011;6031;50.220;10.122;2022-12-18T04:23:49;15.13;;;9.17;;
11943;SDS011;6031;50.220;10.122;2022-12-18T04:26:15;17.50;;;9.80;;
11943;SDS011;6031;50.220;10.122;2022-12-18T04:28:40;12.77;;;8.83;;
11943;SDS011;6031;50.220;10.122;2022-12-18T04:31:06;18.37;;;10.50;;
11943;SDS011;6031;50.220;10.122;2022-12-18T04:33:31;12.63;;;9.47;;
11943;SDS011;6031;50.220;10.122;2022-12-18T04:35:57;16.50;;;8.73;;
11943;SDS011;6031;50.220;10.122;2022-12-18T04:38:23;15.20;;;8.77;;
11943;SDS011;6031;50.220;10.122;2022-12-18T04:40:48;17.77;;;9.67;;
11943;SDS011;6031;50.220;10.122;2022-12-18T04:43:14;17.17;;;9.57;;
11943;SDS011;6031;50.220;10.122;2022-12-18T04:45:39;18.53;;;9.30;;
11943;SDS011;6031;50.220;10.122;2022-12-18T04:48:05;12.27;;;9.00;;
11943;SDS011;6031;50.220;10.122;2022-12-18T04:50:30;21.70;;;11.17;;
11943;SDS011;6031;50.220;10.122;2022-12-18T04:52:56;15.57;;;10.13;;
11943;SDS011;6031;50.220;10.122;2022-12-18T04:55:24;20.30;;;9.60;;
11943;SDS011;6031;50.220;10.122;2022-12-18T04:57:50;15.90;;;8.57;;
11943;SDS011;6031;50.220;10.122;2022-12-18T05:00:16;13.43;;;9.73;;
11943;SDS011;6031;50.220;10.122;2022-12-18T05:02:42;17.83;;;10.40;;
11943;SDS011;6031;50.220;10.122;2022-12-18T05:05:08;15.13;;;9.17;;
11943;SDS011;6031;50.220;10.122;2022-12-18T05:07:34;21.80;;;11.67;;
11943;SDS011;6031;50.220;10.122;2022-12-18T05:09:59;17.37;;;9.27;;
11943;SDS011;6031;50.220;10.122;2022-12-18T05:12:25;13.80;;;9.10;;
11943;SDS011;6031;50.220;10.122;2022-12-18T05:14:50;18.77;;;12.00;;
11943;SDS011;6031;50.220;10.122;2022-12-18T05:17:16;13.10;;;8.67;;
11943;SDS011;6031;50.220;10.122;2022-12-18T05:19:42;15.73;;;10.50;;
11943;SDS011;6031;50.220;10.122;2022-12-18T05:22:07;14.30;;;9.67;;
11943;SDS011;6031;50.220;10.122;2022-12-18T05:24:33;15.07;;;9.93;;
11943;SDS011;6031;50.220;10.122;2022-12-18T05:26:59;18.10;;;10.40;;
11943;SDS011;6031;50.220;10.122;2022-12-18T05:29:25;16.17;;;10.00;;
11943;SDS011;6031;50.220;10.122;2022-12-18T05:31:50;17.13;;;10.27;;
11943;SDS011;6031;50.220;10.122;2022-12-18T05:34:16;20.87;;;11.23;;
11943;SDS011;6031;50.220;10.122;2022-12-18T05:36:41;21.03;;;10.83;;
11943;SDS011;6031;50.220;10.122;2022-12-18T05:39:07;17.80;;;10.13;;
11943;SDS011;6031;50.220;10.122;2022-12-18T05:41:32;23.13;;;11.77;;
11943;SDS011;6031;50.220;10.122;2022-12-18T05:43:58;22.17;;;10.27;;
11943;SDS011;6031;50.220;10.122;2022-12-18T05:46:24;12.37;;;9.47;;
11943;SDS011;6031;50.220;10.122;2022-12-18T05:48:49;15.13;;;10.27;;
11943;SDS011;6031;50.220;10.122;2022-12-18T05:51:16;17.73;;;9.63;;
11943;SDS011;6031;50.220;10.122;2022-12-18T05:53:43;18.50;;;9.50;;
11943;SDS011;6031;50.220;10.122;2022-12-18T05:56:11;18.83;;;10.10;;
11943;SDS011;6031;50.220;10.122;2022-12-18T05:58:39;20.40;;;11.07;;
11943;SDS011;6031;50.220;10.122;2022-12-18T06:01:10;22.27;;;12.90;;
11943;SDS011;6031;50.220;10.122;2022-12-18T06:03:43;26.73;;;10.93;;
11943;SDS011;6031;50.220;10.122;2022-12-18T06:06:24;23.53;;;11.40;;
11943;SDS011;6031;50.220;10.122;2022-12-18T06:08:51;14.73;;;9.23;;
11943;SDS011;6031;50.220;10.122;2022-12-18T06:11:19;18.10;;;10.50;;
11943;SDS011;6031;50.220;10.122;2022-12-18T06:13:46;24.70;;;10.97;;
11943;SDS011;6031;50.220;10.122;2022-12-18T06:16:14;18.70;;;9.90;;
11943;SDS011;6031;50.220;10.122;2022-12-18T06:18:40;14.73;;;10.70;;
11943;SDS011;6031;50.220;10.122;2022-12-18T06:21:06;25.80;;;13.37;;
11943;SDS011;6031;50.220;10.122;2022-12-18T06:23:31;15.10;;;9.20;;
11943;SDS011;6031;50.220;10.122;2022-12-18T06:25:57;21.03;;;12.23;;
11943;SDS011;6031;50.220;10.122;2022-12-18T06:28:22;19.63;;;11.27;;
11943;SDS011;6031;50.220;10.122;2022-12-18T06:30:48;16.27;;;11.40;;
11943;SDS011;6031;50.220;10.122;2022-12-18T06:33:14;15.70;;;10.53;;
11943;SDS011;6031;50.220;10.122;2022-12-18T06:35:41;15.67;;;9.83;;
11943;SDS011;6031;50.220;10.122;2022-12-18T06:38:06;17.53;;;9.53;;
11943;SDS011;6031;50.220;10.122;2022-12-18T06:40:32;17.73;;;10.77;;
11943;SDS011;6031;50.220;10.122;2022-12-18T06:42:58;15.23;;;9.33;;
11943;SDS011;6031;50.220;10.122;2022-12-18T06:45:24;21.63;;;11.03;;
11943;SDS011;6031;50.220;10.122;2022-12-18T06:47:49;16.63;;;9.80;;
11943;SDS011;6031;50.220;10.122;2022-12-18T06:50:15;13.93;;;8.60;;
11943;SDS011;6031;50.220;10.122;2022-12-18T06:52:41;17.00;;;10.67;;
11943;SDS011;6031;50.220;10.122;2022-12-18T06:55:08;18.30;;;9.27;;
11943;SDS011;6031;50.220;10.122;2022-12-18T06:57:35;14.87;;;9.77;;
11943;SDS011;6031;50.220;10.122;2022-12-18T07:00:01;22.40;;;11.27;;
11943;SDS011;6031;50.220;10.122;2022-12-18T07:02:27;19.40;;;11.30;;
11943;SDS011;6031;50.220;10.122;2022-12-18T07:04:53;19.20;;;11.50;;
11943;SDS011;6031;50.220;10.122;2022-12-18T07:07:19;19.07;;;11.33;;
11943;SDS011;6031;50.220;10.122;2022-12-18T07:09:44;16.80;;;10.77;;
11943;SDS011;6031;50.220;10.122;2022-12-18T07:12:10;26.30;;;12.03;;
11943;SDS011;6031;50.220;10.122;2022-12-18T07:14:35;16.40;;;11.63;;
11943;SDS011;6031;50.220;10.122;2022-12-18T07:17:01;26.03;;;13.70;;
11943;SDS011;6031;50.220;10.122;2022-12-18T07:19:26;23.30;;;13.67;;
11943;SDS011;6031;50.220;10.122;2022-12-18T07:21:52;20.30;;;12.87;;
11943;SDS011;6031;50.220;10.122;2022-12-18T07:24:17;21.97;;;14.03;;
11943;SDS011;6031;50.220;10.122;2022-12-18T07:26:45;16.50;;;11.43;;
11943;SDS011;6031;50.220;10.122;2022-12-18T07:29:11;24.33;;;11.87;;
11943;SDS011;6031;50.220;10.122;2022-12-18T07:31:36;20.30;;;11.70;;
11943;SDS011;6031;50.220;10.122;2022-12-18T07:34:02;17.10;;;10.53;;
11943;SDS011;6031;50.220;10.122;2022-12-18T07:36:27;13.13;;;10.23;;
11943;SDS011;6031;50.220;10.122;2022-12-18T07:38:53;21.50;;;12.30;;
11943;SDS011;6031;50.220;10.122;2022-12-18T07:41:19;18.87;;;10.93;;
11943;SDS011;6031;50.220;10.122;2022-12-18T07:43:45;18.03;;;11.10;;
11943;SDS011;6031;50.220;10.122;2022-12-18T07:46:11;16.43;;;11.30;;
11943;SDS011;6031;50.220;10.122;2022-12-18T07:48:39;18.57;;;13.30;;
11943;SDS011;6031;50.220;10.122;2022-12-18T07:51:06;17.07;;;10.90;;
11943;SDS011;6031;50.220;10.122;2022-12-18T07:53:32;22.23;;;13.63;;
11943;SDS011;6031;50.220;10.122;2022-12-18T07:55:59;27.53;;;12.73;;
11943;SDS011;6031;50.220;10.122;2022-12-18T07:58:27;27.07;;;13.70;;
11943;SDS011;6031;50.220;10.122;2022-12-18T08:00:54;21.90;;;14.33;;
11943;SDS011;6031;50.220;10.122;2022-12-18T08:03:19;22.10;;;12.30;;
11943;SDS011;6031;50.220;10.122;2022-12-18T08:05:45;19.47;;;13.30;;
11943;SDS011;6031;50.220;10.122;2022-12-18T08:08:10;20.80;;;13.23;;
11943;SDS011;6031;50.220;10.122;2022-12-18T08:10:37;21.83;;;12.63;;
11943;SDS011;6031;50.220;10.122;2022-12-18T08:13:03;23.70;;;13.47;;
11943;SDS011;6031;50.220;10.122;2022-12-18T08:15:29;23.63;;;14.17;;
11943;SDS011;6031;50.220;10.122;2022-12-18T08:17:57;22.13;;;12.27;;
11943;SDS011;6031;50.220;10.122;2022-12-18T08:20:23;27.83;;;15.63;;
11943;SDS011;6031;50.220;10.122;2022-12-18T08:22:49;22.80;;;14.50;;
11943;SDS011;6031;50.220;10.122;2022-12-18T08:25:14;27.97;;;16.03;;
11943;SDS011;6031;50.220;10.122;2022-12-18T08:27:40;26.97;;;15.67;;
11943;SDS011;6031;50.220;10.122;2022-12-18T08:30:05;19.10;;;12.70;;
11943;SDS011;6031;50.220;10.122;2022-12-18T08:32:32;20.17;;;14.30;;
11943;SDS011;6031;50.220;10.122;2022-12-18T08:34:58;28.73;;;16.63;;
11943;SDS011;6031;50.220;10.122;2022-12-18T08:37:24;19.57;;;11.57;;
11943;SDS011;6031;50.220;10.122;2022-12-18T08:39:49;24.37;;;17.23;;
11943;SDS011;6031;50.220;10.122;2022-12-18T08:42:15;32.63;;;18.00;;
11943;SDS011;6031;50.220;10.122;2022-12-18T08:44:59;25.33;;;17.87;;
11943;SDS011;6031;50.220;10.122;2022-12-18T08:47:25;27.50;;;16.20;;
11943;SDS011;6031;50.220;10.122;2022-12-18T08:49:51;30.00;;;17.23;;
11943;SDS011;6031;50.220;10.122;2022-12-18T08:52:16;32.03;;;17.97;;
11943;SDS011;6031;50.220;10.122;2022-12-18T08:54:42;25.77;;;15.20;;
11943;SDS011;6031;50.220;10.122;2022-12-18T08:57:07;23.50;;;13.10;;
11943;SDS011;6031;50.220;10.122;2022-12-18T08:59:33;27.13;;;14.70;;
11943;SDS011;6031;50.220;10.122;2022-12-18T09:01:58;26.63;;;15.57;;
11943;SDS011;6031;50.220;10.122;2022-12-18T09:04:24;21.70;;;11.83;;
11943;SDS011;6031;50.220;10.122;2022-12-18T09:06:49;20.03;;;13.47;;
11943;SDS011;6031;50.220;10.122;2022-12-18T09:09:15;23.20;;;13.13;;
11943;SDS011;6031;50.220;10.122;2022-12-18T09:11:40;30.20;;;12.93;;
11943;SDS011;6031;50.220;10.122;2022-12-18T09:14:06;25.97;;;12.83;;
11943;SDS011;6031;50.220;10.122;2022-12-18T09:16:32;34.07;;;15.73;;
11943;SDS011;6031;50.220;10.122;2022-12-18T09:18:59;25.33;;;14.40;;
11943;SDS011;6031;50.220;10.122;2022-12-18T09:21:30;20.37;;;12.17;;
11943;SDS011;6031;50.220;10.122;2022-12-18T09:23:57;22.47;;;12.63;;
11943;SDS011;6031;50.220;10.122;2022-12-18T09:26:23;27.20;;;14.10;;
11943;SDS011;6031;50.220;10.122;2022-12-18T09:28:50;24.47;;;12.47;;
11943;SDS011;6031;50.220;10.122;2022-12-18T09:31:17;31.40;;;14.77;;
11943;SDS011;6031;50.220;10.122;2022-12-18T09:33:45;31.97;;;15.87;;
11943;SDS011;6031;50.220;10.122;2022-12-18T09:36:12;33.43;;;15.10;;
11943;SDS011;6031;50.220;10.122;2022-12-18T09:38:39;24.77;;;12.60;;
11943;SDS011;6031;50.220;10.122;2022-12-18T09:41:15;29.40;;;13.53;;
11943;SDS011;6031;50.220;10.122;2022-12-18T09:44:20;28.77;;;12.37;;
11943;SDS011;6031;50.220;10.122;2022-12-18T09:47:13;29.50;;;13.83;;
11943;SDS011;6031;50.220;10.122;2022-12-18T09:49:45;27.10;;;14.13;;
11943;SDS011;6031;50.220;10.122;2022-12-18T09:55:09;25.73;;;13.33;;
11943;SDS011;6031;50.220;10.122;2022-12-18T09:57:57;26.00;;;13.47;;
11943;SDS011;6031;50.220;10.122;2022-12-18T10:00:30;29.63;;;14.33;;
11943;SDS011;6031;50.220;10.122;2022-12-18T10:02:58;31.77;;;15.03;;
11943;SDS011;6031;50.220;10.122;2022-12-18T10:05:38;25.83;;;14.00;;
11943;SDS011;6031;50.220;10.122;2022-12-18T10:08:15;27.77;;;13.97;;
11943;SDS011;6031;50.220;10.122;2022-12-18T10:11:23;25.70;;;13.80;;
11943;SDS011;6031;50.220;10.122;2022-12-18T10:16:57;28.43;;;14.97;;
11943;SDS011;6031;50.220;10.122;2022-12-18T10:19:41;31.33;;;15.80;;
11943;SDS011;6031;50.220;10.122;2022-12-18T10:22:25;29.90;;;15.50;;
11943;SDS011;6031;50.220;10.122;2022-12-18T10:27:48;25.67;;;14.30;;
11943;SDS011;6031;50.220;10.122;2022-12-18T10:30:20;28.37;;;14.43;;
11943;SDS011;6031;50.220;10.122;2022-12-18T10:32:47;23.50;;;12.50;;
11943;SDS011;6031;50.220;10.122;2022-12-18T10:35:46;32.87;;;15.43;;
11943;SDS011;6031;50.220;10.122;2022-12-18T10:38:07;26.70;;;13.10;;
11943;SDS011;6031;50.220;10.122;2022-12-18T10:40:47;32.13;;;14.93;;
11943;SDS011;6031;50.220;10.122;2022-12-18T10:43:31;34.30;;;14.53;;
11943;SDS011;6031;50.220;10.122;2022-12-18T10:48:26;31.57;;;14.63;;
11943;SDS011;6031;50.220;10.122;2022-12-18T10:50:53;21.23;;;13.50;;
11943;SDS011;6031;50.220;10.122;2022-12-18T10:53:24;26.00;;;14.13;;
11943;SDS011;6031;50.220;10.122;2022-12-18T10:55:52;27.93;;;14.50;;
11943;SDS011;6031;50.220;10.122;2022-12-18T11:03:43;29.43;;;14.83;;
11943;SDS011;6031;50.220;10.122;2022-12-18T11:08:39;23.80;;;13.53;;
11943;SDS011;6031;50.220;10.122;2022-12-18T11:11:09;24.90;;;12.40;;
11943;SDS011;6031;50.220;10.122;2022-12-18T11:13:49;28.37;;;15.80;;
11943;SDS011;6031;50.220;10.122;2022-12-18T11:16:20;29.90;;;14.37;;
11943;SDS011;6031;50.220;10.122;2022-12-18T11:18:46;28.00;;;13.93;;
11943;SDS011;6031;50.220;10.122;2022-12-18T11:24:36;31.47;;;15.10;;
11943;SDS011;6031;50.220;10.122;2022-12-18T11:27:02;30.73;;;15.10;;
11943;SDS011;6031;50.220;10.122;2022-12-18T11:29:31;28.80;;;15.77;;
11943;SDS011;6031;50.220;10.122;2022-12-18T11:34:52;23.73;;;15.47;;
11943;SDS011;6031;50.220;10.122;2022-12-18T11:37:24;40.67;;;17.33;;
11943;SDS011;6031;50.220;10.122;2022-12-18T11:40:06;29.47;;;14.93;;
11943;SDS011;6031;50.220;10.122;2022-12-18T11:42:47;26.33;;;15.73;;
11943;SDS011;6031;50.220;10.122;2022-12-18T11:45:30;29.77;;;15.70;;
11943;SDS011;6031;50.220;10.122;2022-12-18T11:48:18;29.00;;;15.13;;
11943;SDS011;6031;50.220;10.122;2022-12-18T11:50:55;30.83;;;16.40;;
11943;SDS011;6031;50.220;10.122;2022-12-18T11:53:22;31.20;;;16.70;;
11943;SDS011;6031;50.220;10.122;2022-12-18T11:55:56;31.03;;;15.90;;
11943;SDS011;6031;50.220;10.122;2022-12-18T12:01:15;29.67;;;15.90;;
11943;SDS011;6031;50.220;10.122;2022-12-18T12:15:13;23.63;;;14.10;;
11943;SDS011;6031;50.220;10.122;2022-12-18T12:18:21;28.67;;;15.73;;
11943;SDS011;6031;50.220;10.122;2022-12-18T12:21:08;25.13;;;13.23;;
11943;SDS011;6031;50.220;10.122;2022-12-18T12:23:53;28.03;;;14.90;;
11943;SDS011;6031;50.220;10.122;2022-12-18T12:29:27;32.53;;;16.40;;
11943;SDS011;6031;50.220;10.122;2022-12-18T12:34:33;27.90;;;15.60;;
11943;SDS011;6031;50.220;10.122;2022-12-18T12:40:07;21.00;;;13.77;;
11943;SDS011;6031;50.220;10.122;2022-12-18T12:42:42;28.73;;;14.37;;
11943;SDS011;6031;50.220;10.122;2022-12-18T12:53:56;26.03;;;13.07;;
11943;SDS011;6031;50.220;10.122;2022-12-18T12:56:25;24.87;;;13.27;;
11943;SDS011;6031;50.220;10.122;2022-12-18T12:59:06;27.50;;;14.70;;
11943;SDS011;6031;50.220;10.122;2022-12-18T13:01:47;27.33;;;14.83;;
11943;SDS011;6031;50.220;10.122;2022-12-18T13:07:14;29.03;;;13.63;;
11943;SDS011;6031;50.220;10.122;2022-12-18T13:18:17;28.77;;;14.23;;
11943;SDS011;6031;50.220;10.122;2022-12-18T13:20:45;24.47;;;13.53;;
11943;SDS011;6031;50.220;10.122;2022-12-18T13:25:56;24.73;;;14.03;;
11943;SDS011;6031;50.220;10.122;2022-12-18T13:31:11;26.80;;;13.83;;
11943;SDS011;6031;50.220;10.122;2022-12-18T13:34:11;22.40;;;12.30;;
11943;SDS011;6031;50.220;10.122;2022-12-18T13:36:44;24.73;;;14.03;;
11943;SDS011;6031;50.220;10.122;2022-12-18T13:41:43;23.20;;;13.87;;
11943;SDS011;6031;50.220;10.122;2022-12-18T13:44:24;28.77;;;14.67;;
11943;SDS011;6031;50.220;10.122;2022-12-18T13:46:55;30.73;;;15.07;;
11943;SDS011;6031;50.220;10.122;2022-12-18T13:49:26;30.57;;;15.70;;
11943;SDS011;6031;50.220;10.122;2022-12-18T13:52:02;28.90;;;15.63;;
11943;SDS011;6031;50.220;10.122;2022-12-18T13:54:40;30.83;;;16.03;;
11943;SDS011;6031;50.220;10.122;2022-12-18T14:00:27;29.10;;;14.73;;
11943;SDS011;6031;50.220;10.122;2022-12-18T14:02:54;26.30;;;14.93;;
11943;SDS011;6031;50.220;10.122;2022-12-18T14:05:24;27.63;;;16.00;;
11943;SDS011;6031;50.220;10.122;2022-12-18T14:07:55;25.23;;;14.87;;
11943;SDS011;6031;50.220;10.122;2022-12-18T14:10:29;26.53;;;14.87;;
11943;SDS011;6031;50.220;10.122;2022-12-18T14:13:05;25.70;;;14.87;;
11943;SDS011;6031;50.220;10.122;2022-12-18T14:15:34;23.20;;;14.90;;
11943;SDS011;6031;50.220;10.122;2022-12-18T14:18:19;25.07;;;13.53;;
11943;SDS011;6031;50.220;10.122;2022-12-18T14:21:04;24.40;;;15.03;;
11943;SDS011;6031;50.220;10.122;2022-12-18T14:23:34;24.73;;;15.00;;
11943;SDS011;6031;50.220;10.122;2022-12-18T14:26:02;23.30;;;14.33;;
11943;SDS011;6031;50.220;10.122;2022-12-18T14:28:45;24.77;;;15.07;;
11943;SDS011;6031;50.220;10.122;2022-12-18T14:31:18;28.57;;;14.70;;
11943;SDS011;6031;50.220;10.122;2022-12-18T14:33:44;24.93;;;13.90;;
11943;SDS011;6031;50.220;10.122;2022-12-18T14:36:17;25.73;;;13.90;;
11943;SDS011;6031;50.220;10.122;2022-12-18T14:38:52;25.93;;;14.20;;
11943;SDS011;6031;50.220;10.122;2022-12-18T14:41:19;27.53;;;14.03;;
11943;SDS011;6031;50.220;10.122;2022-12-18T14:43:49;24.30;;;13.77;;
11943;SDS011;6031;50.220;10.122;2022-12-18T14:46:34;32.70;;;17.77;;
11943;SDS011;6031;50.220;10.122;2022-12-18T14:49:02;27.87;;;15.30;;
11943;SDS011;6031;50.220;10.122;2022-12-18T14:51:30;28.70;;;15.13;;
11943;SDS011;6031;50.220;10.122;2022-12-18T14:53:59;29.23;;;16.30;;
11943;SDS011;6031;50.220;10.122;2022-12-18T14:56:28;26.17;;;14.47;;
11943;SDS011;6031;50.220;10.122;2022-12-18T14:58:55;24.40;;;15.63;;
11943;SDS011;6031;50.220;10.122;2022-12-18T15:01:24;26.10;;;15.67;;
11943;SDS011;6031;50.220;10.122;2022-12-18T15:04:24;28.30;;;16.23;;
11943;SDS011;6031;50.220;10.122;2022-12-18T15:07:18;30.47;;;15.30;;
11943;SDS011;6031;50.220;10.122;2022-12-18T15:12:33;26.70;;;15.23;;
11943;SDS011;6031;50.220;10.122;2022-12-18T15:14:59;27.87;;;15.17;;
11943;SDS011;6031;50.220;10.122;2022-12-18T15:17:24;26.23;;;14.23;;
11943;SDS011;6031;50.220;10.122;2022-12-18T15:19:51;24.80;;;14.50;;
11943;SDS011;6031;50.220;10.122;2022-12-18T15:22:27;32.97;;;15.87;;
11943;SDS011;6031;50.220;10.122;2022-12-18T15:24:55;29.57;;;16.10;;
11943;SDS011;6031;50.220;10.122;2022-12-18T15:27:24;28.53;;;18.50;;
11943;SDS011;6031;50.220;10.122;2022-12-18T15:32:35;27.40;;;16.47;;
11943;SDS011;6031;50.220;10.122;2022-12-18T15:35:11;27.87;;;15.63;;
11943;SDS011;6031;50.220;10.122;2022-12-18T15:37:40;26.00;;;16.17;;
11943;SDS011;6031;50.220;10.122;2022-12-18T15:40:07;29.97;;;16.73;;
11943;SDS011;6031;50.220;10.122;2022-12-18T15:42:36;53.23;;;27.47;;
11943;SDS011;6031;50.220;10.122;2022-12-18T15:45:20;28.17;;;17.40;;
11943;SDS011;6031;50.220;10.122;2022-12-18T15:47:46;24.77;;;14.70;;
11943;SDS011;6031;50.220;10.122;2022-12-18T15:50:11;22.30;;;15.03;;
11943;SDS011;6031;50.220;10.122;2022-12-18T15:52:41;27.17;;;14.60;;
11943;SDS011;6031;50.220;10.122;2022-12-18T15:55:12;25.07;;;14.83;;
11943;SDS011;6031;50.220;10.122;2022-12-18T15:57:57;65.50;;;30.33;;
11943;SDS011;6031;50.220;10.122;2022-12-18T16:00:23;34.63;;;18.70;;
11943;SDS011;6031;50.220;10.122;2022-12-18T16:02:49;39.40;;;19.77;;
11943;SDS011;6031;50.220;10.122;2022-12-18T16:05:15;33.97;;;19.67;;
11943;SDS011;6031;50.220;10.122;2022-12-18T16:07:43;28.70;;;16.60;;
11943;SDS011;6031;50.220;10.122;2022-12-18T16:10:09;28.63;;;15.87;;
11943;SDS011;6031;50.220;10.122;2022-12-18T16:12:34;31.83;;;16.27;;
11943;SDS011;6031;50.220;10.122;2022-12-18T16:15:00;26.73;;;15.93;;
11943;SDS011;6031;50.220;10.122;2022-12-18T16:17:26;27.77;;;16.47;;
11943;SDS011;6031;50.220;10.122;2022-12-18T16:19:52;23.57;;;14.47;;
11943;SDS011;6031;50.220;10.122;2022-12-18T16:22:19;25.20;;;14.77;;